createdAt,value
2018-01-30T00:01:10.916Z,2.80
2018-01-30T00:03:39.875Z,3.00
2018-01-30T00:06:08.826Z,2.83
2018-01-30T00:08:37.012Z,2.77
2018-01-30T00:11:05.179Z,2.80
2018-01-30T00:13:33.367Z,2.80
2018-01-30T00:16:01.645Z,3.37
2018-01-30T00:18:29.817Z,3.03
2018-01-30T00:20:57.993Z,3.80
2018-01-30T00:23:26.165Z,3.87
2018-01-30T00:25:54.333Z,3.13
2018-01-30T00:28:22.559Z,3.30
2018-01-30T00:30:50.737Z,3.10
2018-01-30T00:33:18.922Z,3.37
2018-01-30T00:35:47.133Z,2.90
2018-01-30T00:38:15.314Z,2.50
2018-01-30T00:40:43.487Z,2.60
2018-01-30T00:43:11.683Z,2.60
2018-01-30T00:45:39.881Z,3.43
2018-01-30T00:48:08.043Z,3.23
2018-01-30T00:50:36.249Z,3.00
2018-01-30T00:53:04.417Z,3.00
2018-01-30T00:55:32.732Z,4.47
2018-01-30T00:58:01.694Z,4.87
2018-01-30T01:00:29.887Z,4.43
2018-01-30T01:02:58.090Z,4.23
2018-01-30T01:05:26.342Z,4.50
2018-01-30T01:07:54.523Z,4.40
2018-01-30T01:10:22.712Z,4.93
2018-01-30T01:12:50.926Z,4.27
2018-01-30T01:15:19.122Z,3.63
2018-01-30T01:17:48.100Z,3.50
2018-01-30T01:20:16.348Z,3.47
2018-01-30T01:22:44.546Z,3.33
2018-01-30T01:25:12.753Z,4.13
2018-01-30T01:27:40.961Z,3.53
2018-01-30T01:30:09.148Z,3.50
2018-01-30T01:32:37.426Z,3.20
2018-01-30T01:35:05.649Z,3.77
2018-01-30T01:37:34.604Z,3.13
2018-01-30T01:40:02.832Z,3.30
2018-01-30T01:42:31.819Z,3.00
2018-01-30T01:45:00.766Z,3.90
2018-01-30T01:47:28.944Z,3.33
2018-01-30T01:49:57.172Z,3.47
2018-01-30T01:52:26.119Z,3.20
2018-01-30T01:54:54.285Z,4.20
2018-01-30T01:57:22.471Z,2.90
2018-01-30T01:59:50.690Z,2.73
2018-01-30T02:02:18.945Z,3.80
2018-01-30T02:04:47.148Z,3.07
2018-01-30T02:07:15.313Z,3.23
2018-01-30T02:09:44.259Z,3.80
2018-01-30T02:12:12.473Z,3.30
2018-01-30T02:14:40.809Z,3.97
2018-01-30T02:17:09.017Z,3.43
2018-01-30T02:19:37.235Z,3.60
2018-01-30T02:22:06.167Z,4.30
2018-01-30T02:24:34.372Z,4.10
2018-01-30T02:27:02.590Z,3.43
2018-01-30T02:29:30.777Z,3.70
2018-01-30T02:31:58.961Z,3.03
2018-01-30T02:34:27.172Z,3.10
2018-01-30T02:36:55.345Z,3.97
2018-01-30T02:39:23.507Z,4.70
2018-01-30T02:41:51.717Z,4.20
2018-01-30T02:44:20.660Z,4.60
2018-01-30T02:46:48.867Z,4.77
2018-01-30T02:49:17.070Z,4.80
2018-01-30T02:51:46.015Z,3.87
2018-01-30T02:54:14.191Z,3.83
2018-01-30T02:56:42.385Z,4.03
2018-01-30T02:59:10.562Z,4.23
2018-01-30T03:01:38.727Z,5.50
2018-01-30T03:04:06.944Z,5.37
2018-01-30T03:06:35.883Z,4.60
2018-01-30T03:09:04.048Z,5.20
2018-01-30T03:11:32.304Z,4.97
2018-01-30T03:14:00.514Z,4.80
2018-01-30T03:16:28.694Z,4.73
2018-01-30T03:18:56.900Z,5.47
2018-01-30T03:21:26.444Z,6.40
2018-01-30T03:23:54.623Z,6.50
2018-01-30T03:26:22.856Z,6.27
2018-01-30T03:28:51.028Z,6.20
2018-01-30T03:31:19.194Z,6.30
2018-01-30T03:33:47.410Z,5.27
2018-01-30T03:36:15.589Z,4.93
2018-01-30T03:38:43.768Z,5.03
2018-01-30T03:41:12.738Z,4.30
2018-01-30T03:43:40.965Z,4.03
2018-01-30T03:46:09.150Z,4.40
2018-01-30T03:48:37.394Z,4.40
2018-01-30T03:51:05.617Z,4.37
2018-01-30T03:53:33.939Z,5.00
2018-01-30T03:56:02.144Z,3.87
2018-01-30T03:58:30.320Z,5.00
2018-01-30T04:00:58.496Z,5.17
2018-01-30T04:03:26.726Z,7.40
2018-01-30T04:05:55.672Z,6.63
2018-01-30T04:08:23.870Z,8.37
2018-01-30T04:10:52.090Z,8.80
2018-01-30T04:13:20.346Z,7.07
2018-01-30T04:15:49.286Z,5.70
2018-01-30T04:18:17.504Z,6.50
2018-01-30T04:20:45.686Z,7.70
2018-01-30T04:23:14.627Z,6.63
2018-01-30T04:25:42.881Z,7.00
2018-01-30T04:28:11.060Z,6.63
2018-01-30T04:30:39.257Z,7.00
2018-01-30T04:33:07.492Z,6.93
2018-01-30T04:35:36.447Z,5.93
2018-01-30T04:38:04.627Z,5.40
2018-01-30T04:40:32.840Z,5.60
2018-01-30T04:43:01.856Z,5.20
2018-01-30T04:45:30.040Z,4.90
2018-01-30T04:47:58.355Z,5.10
2018-01-30T04:50:26.540Z,4.77
2018-01-30T04:52:54.720Z,4.77
2018-01-30T04:55:23.700Z,4.60
2018-01-30T04:57:53.390Z,5.73
2018-01-30T05:00:21.588Z,5.90
2018-01-30T05:02:50.554Z,5.60
2018-01-30T05:05:18.742Z,7.90
2018-01-30T05:07:46.935Z,7.13
2018-01-30T05:10:15.153Z,5.10
2018-01-30T05:12:43.337Z,8.37
2018-01-30T05:15:11.507Z,8.73
2018-01-30T05:17:39.754Z,8.43
2018-01-30T05:20:08.713Z,10.63
2018-01-30T05:22:36.882Z,7.40
2018-01-30T05:25:05.109Z,7.87
2018-01-30T05:27:34.046Z,7.07
2018-01-30T05:30:02.244Z,10.77
2018-01-30T05:32:30.460Z,10.20
2018-01-30T05:34:58.639Z,9.00
2018-01-30T05:37:26.825Z,9.10
2018-01-30T05:39:55.037Z,9.50
2018-01-30T05:42:23.225Z,9.30
2018-01-30T05:44:51.387Z,9.27
2018-01-30T05:47:19.719Z,9.20
2018-01-30T05:49:47.889Z,12.07
2018-01-30T05:52:16.071Z,11.13
2018-01-30T05:54:44.824Z,9.20
2018-01-30T05:57:12.999Z,10.73
2018-01-30T05:59:41.199Z,10.93
2018-01-30T06:02:09.421Z,10.47
2018-01-30T06:04:37.603Z,9.40
2018-01-30T06:07:05.792Z,8.53
2018-01-30T06:09:34.014Z,11.03
2018-01-30T06:12:02.206Z,11.83
2018-01-30T06:14:30.397Z,15.57
2018-01-30T06:16:58.611Z,14.73
2018-01-30T06:19:26.878Z,12.50
2018-01-30T06:21:55.050Z,10.53
2018-01-30T06:24:24.022Z,10.67
2018-01-30T06:26:52.189Z,13.10
2018-01-30T06:29:20.380Z,13.80
2018-01-30T06:31:48.596Z,12.23
2018-01-30T06:34:16.798Z,22.17
2018-01-30T06:36:44.982Z,20.00
2018-01-30T06:39:13.190Z,14.90
2018-01-30T06:41:41.392Z,11.40
2018-01-30T06:44:10.358Z,16.33
2018-01-30T06:46:38.561Z,26.30
2018-01-30T06:49:07.504Z,23.93
2018-01-30T06:51:35.792Z,19.17
2018-01-30T06:54:04.001Z,59.40
2018-01-30T06:56:32.934Z,35.53
2018-01-30T06:59:01.117Z,14.20
2018-01-30T07:01:29.349Z,15.53
2018-01-30T07:03:58.282Z,13.73
2018-01-30T07:06:26.454Z,13.70
2018-01-30T07:08:54.727Z,24.10
2018-01-30T07:11:23.024Z,20.20
2018-01-30T07:13:51.201Z,14.77
2018-01-30T07:16:19.560Z,14.90
2018-01-30T07:18:47.749Z,29.83
2018-01-30T07:21:15.941Z,32.97
2018-01-30T07:23:44.177Z,21.97
2018-01-30T07:26:12.362Z,43.50
2018-01-30T07:28:40.586Z,53.77
2018-01-30T07:31:08.801Z,38.17
2018-01-30T07:33:37.055Z,32.13
2018-01-30T07:36:06.085Z,20.13
2018-01-30T07:38:34.498Z,12.53
2018-01-30T07:41:02.792Z,10.53
2018-01-30T07:43:31.133Z,10.47
2018-01-30T07:46:00.266Z,12.13
2018-01-30T07:48:28.483Z,12.27
2018-01-30T07:50:56.707Z,13.57
2018-01-30T07:53:24.985Z,12.40
2018-01-30T07:55:53.198Z,22.70
2018-01-30T07:58:22.163Z,14.57
2018-01-30T08:00:50.426Z,15.67
2018-01-30T08:03:18.633Z,15.87
2018-01-30T08:05:47.626Z,17.67
2018-01-30T08:08:16.012Z,12.67
2018-01-30T08:10:45.031Z,16.80
2018-01-30T08:13:13.222Z,13.40
2018-01-30T08:15:41.486Z,15.10
2018-01-30T08:18:09.694Z,12.43
2018-01-30T08:20:38.209Z,14.27
2018-01-30T08:23:07.173Z,13.37
2018-01-30T08:25:35.428Z,12.93
2018-01-30T08:28:03.667Z,12.93
2018-01-30T08:30:32.635Z,12.80
2018-01-30T08:33:00.814Z,13.57
2018-01-30T08:35:29.010Z,13.53
2018-01-30T08:37:57.966Z,13.63
2018-01-30T08:40:26.962Z,13.93
2018-01-30T08:42:55.307Z,13.13
2018-01-30T08:45:23.643Z,11.93
2018-01-30T08:47:51.866Z,13.13
2018-01-30T08:50:20.120Z,11.97
2018-01-30T08:52:48.322Z,10.87
2018-01-30T08:55:16.562Z,11.27
2018-01-30T08:57:48.510Z,11.50
2018-01-30T09:00:16.742Z,10.30
2018-01-30T09:02:44.973Z,9.00
2018-01-30T09:05:13.966Z,9.33
2018-01-30T09:07:42.292Z,9.43
2018-01-30T09:10:11.298Z,9.27
2018-01-30T09:12:39.519Z,8.87
2018-01-30T09:15:08.650Z,8.53
2018-01-30T09:17:37.102Z,8.97
2018-01-30T09:20:06.045Z,7.30
2018-01-30T09:22:34.265Z,7.90
2018-01-30T09:25:03.217Z,7.90
2018-01-30T09:27:31.453Z,7.67
2018-01-30T09:29:59.665Z,7.60
2018-01-30T09:32:27.948Z,8.07
2018-01-30T09:34:56.147Z,7.83
2018-01-30T09:37:24.351Z,6.97
2018-01-30T09:42:54.049Z,8.17
2018-01-30T09:45:22.325Z,8.20
2018-01-30T09:47:50.513Z,7.13
2018-01-30T09:50:18.710Z,7.70
2018-01-30T09:52:47.687Z,7.53
2018-01-30T09:55:16.647Z,7.07
2018-01-30T09:57:44.869Z,8.83
2018-01-30T10:00:13.842Z,8.97
2018-01-30T10:02:42.032Z,8.03
2018-01-30T10:05:11.018Z,7.00
2018-01-30T10:10:40.367Z,7.30
2018-01-30T10:13:08.548Z,6.70
2018-01-30T10:15:36.762Z,6.07
2018-01-30T10:18:04.966Z,6.00
2018-01-30T10:20:33.140Z,5.43
2018-01-30T10:23:02.147Z,6.10
2018-01-30T10:25:31.120Z,6.47
2018-01-30T10:27:59.318Z,6.13
2018-01-30T10:30:28.281Z,5.50
2018-01-30T10:32:56.514Z,4.87
2018-01-30T10:35:25.490Z,4.77
2018-01-30T10:37:55.390Z,5.50
2018-01-30T10:40:24.387Z,6.17
2018-01-30T10:42:52.600Z,5.47
2018-01-30T10:45:20.778Z,6.10
2018-01-30T10:47:48.986Z,5.67
2018-01-30T10:50:17.174Z,4.97
2018-01-30T10:52:45.379Z,5.20
2018-01-30T10:55:14.359Z,5.50
2018-01-30T10:57:42.546Z,5.63
2018-01-30T11:00:10.965Z,5.40
2018-01-30T11:02:39.216Z,5.70
2018-01-30T11:05:07.473Z,5.80
2018-01-30T11:07:36.424Z,5.93
2018-01-30T11:10:04.651Z,6.77
2018-01-30T11:12:33.655Z,5.43
2018-01-30T11:15:01.943Z,5.83
2018-01-30T11:17:30.152Z,5.70
2018-01-30T11:19:58.373Z,6.40
2018-01-30T11:22:27.361Z,5.60
2018-01-30T11:24:56.343Z,5.80
2018-01-30T11:27:24.550Z,5.37
2018-01-30T11:29:52.839Z,6.17
2018-01-30T11:32:21.072Z,5.87
2018-01-30T11:34:50.128Z,6.10
2018-01-30T11:37:18.384Z,5.63
2018-01-30T11:39:46.591Z,6.80
2018-01-30T11:42:14.816Z,6.03
2018-01-30T11:44:43.797Z,6.73
2018-01-30T11:47:12.760Z,5.40
2018-01-30T11:49:41.108Z,5.47
2018-01-30T11:52:09.348Z,6.27
2018-01-30T11:54:37.868Z,6.27
2018-01-30T11:57:06.052Z,5.83
2018-01-30T11:59:34.338Z,5.73
2018-01-30T12:02:02.587Z,6.73
2018-01-30T12:04:31.560Z,6.27
2018-01-30T12:07:00.530Z,6.20
2018-01-30T12:09:28.720Z,6.57
2018-01-30T12:11:56.978Z,6.63
2018-01-30T12:14:25.163Z,5.63
2018-01-30T12:16:53.399Z,5.43
2018-01-30T12:19:21.767Z,5.07
2018-01-30T12:21:49.974Z,4.90
2018-01-30T12:24:19.050Z,5.70
2018-01-30T12:26:47.263Z,4.50
2018-01-30T12:29:15.455Z,4.20
2018-01-30T12:31:44.436Z,4.47
2018-01-30T12:34:12.771Z,4.40
2018-01-30T12:36:41.053Z,4.23
2018-01-30T12:39:09.285Z,4.67
2018-01-30T12:41:37.640Z,3.97
2018-01-30T12:44:07.327Z,3.90
2018-01-30T12:46:35.551Z,3.60
2018-01-30T12:49:03.752Z,3.60
2018-01-30T12:51:31.937Z,3.47
2018-01-30T12:54:00.153Z,3.87
2018-01-30T12:56:28.383Z,3.87
2018-01-30T12:58:57.413Z,3.73
2018-01-30T13:01:25.660Z,3.87
2018-01-30T13:03:53.921Z,3.90
2018-01-30T13:06:22.117Z,3.50
2018-01-30T13:08:50.351Z,3.27
2018-01-30T13:11:19.320Z,3.50
2018-01-30T13:13:47.524Z,3.90
2018-01-30T13:16:16.525Z,3.53
2018-01-30T13:18:45.043Z,3.33
2018-01-30T13:21:13.306Z,3.13
2018-01-30T13:23:41.515Z,3.40
2018-01-30T13:26:09.770Z,3.97
2018-01-30T13:28:38.039Z,4.23
2018-01-30T13:31:06.230Z,4.37
2018-01-30T13:33:34.607Z,4.80
2018-01-30T13:36:02.866Z,5.00
2018-01-30T13:38:31.074Z,4.40
2018-01-30T13:41:00.129Z,4.33
2018-01-30T13:43:28.333Z,3.90
2018-01-30T13:45:56.513Z,4.40
2018-01-30T13:48:24.850Z,4.77
2018-01-30T13:50:53.870Z,4.80
2018-01-30T13:53:22.102Z,4.63
2018-01-30T13:55:50.293Z,4.70
2018-01-30T13:58:19.292Z,4.70
2018-01-30T14:00:48.339Z,4.53
2018-01-30T14:03:16.546Z,4.73
2018-01-30T14:05:45.530Z,4.40
2018-01-30T14:08:13.758Z,3.90
2018-01-30T14:10:42.016Z,4.60
2018-01-30T14:13:10.290Z,4.27
2018-01-30T14:15:38.786Z,4.07
2018-01-30T14:18:07.010Z,4.43
2018-01-30T14:20:35.240Z,4.83
2018-01-30T14:23:03.484Z,4.50
2018-01-30T14:25:32.444Z,4.40
2018-01-30T14:28:00.647Z,4.87
2018-01-30T14:30:29.621Z,4.80
2018-01-30T14:32:58.153Z,4.67
2018-01-30T14:35:26.353Z,4.90
2018-01-30T14:37:54.568Z,5.00
2018-01-30T14:40:23.515Z,5.00
2018-01-30T14:42:51.736Z,5.27
2018-01-30T14:45:19.945Z,4.73
2018-01-30T14:47:48.930Z,5.73
2018-01-30T14:50:17.950Z,4.93
2018-01-30T14:52:46.905Z,5.53
2018-01-30T14:55:15.105Z,5.17
2018-01-30T14:57:43.329Z,5.33
2018-01-30T15:00:11.549Z,5.17
2018-01-30T15:02:40.518Z,5.20
2018-01-30T15:05:08.755Z,5.83
2018-01-30T15:07:37.786Z,5.27
2018-01-30T15:10:06.801Z,5.70
2018-01-30T15:12:34.978Z,6.40
2018-01-30T15:15:03.950Z,5.97
2018-01-30T15:17:32.952Z,6.00
2018-01-30T15:20:01.155Z,7.13
2018-01-30T15:22:29.636Z,6.73
2018-01-30T15:24:57.904Z,7.13
2018-01-30T15:27:26.854Z,7.30
2018-01-30T15:29:55.058Z,7.20
2018-01-30T15:32:23.260Z,7.40
2018-01-30T15:34:51.467Z,7.20
2018-01-30T15:37:19.691Z,7.50
2018-01-30T15:39:47.946Z,8.20
2018-01-30T15:42:16.157Z,7.47
2018-01-30T15:44:44.374Z,6.93
2018-01-30T15:47:12.753Z,7.57
2018-01-30T15:49:40.982Z,7.13
2018-01-30T15:52:09.192Z,7.27
2018-01-30T15:54:37.393Z,7.73
2018-01-30T15:57:05.610Z,8.10
2018-01-30T15:59:34.580Z,8.50
2018-01-30T16:02:04.433Z,12.57
2018-01-30T16:04:33.457Z,12.63
2018-01-30T16:07:02.400Z,19.13
2018-01-30T16:09:30.671Z,15.20
2018-01-30T16:11:58.923Z,11.50
2018-01-30T16:14:27.961Z,11.20
2018-01-30T16:16:56.961Z,8.87
2018-01-30T16:19:25.919Z,11.27
2018-01-30T16:21:54.152Z,8.50
2018-01-30T16:24:22.374Z,9.13
2018-01-30T16:26:50.619Z,8.30
2018-01-30T16:29:19.003Z,7.00
2018-01-30T16:31:47.225Z,8.20
2018-01-30T16:34:15.439Z,7.77
2018-01-30T16:36:43.685Z,9.47
2018-01-30T16:39:12.822Z,8.73
2018-01-30T16:41:41.105Z,8.07
2018-01-30T16:44:09.344Z,9.13
2018-01-30T16:46:38.352Z,10.20
2018-01-30T16:49:06.554Z,9.93
2018-01-30T16:51:34.827Z,10.00
2018-01-30T16:54:03.052Z,11.57
2018-01-30T16:56:31.306Z,11.30
2018-01-30T16:58:59.528Z,10.77
2018-01-30T17:01:27.844Z,12.07
2018-01-30T17:03:56.061Z,12.07
2018-01-30T17:06:24.260Z,12.50
2018-01-30T17:08:52.476Z,11.60
2018-01-30T17:11:20.679Z,12.67
2018-01-30T17:13:50.445Z,13.37
2018-01-30T17:16:18.692Z,13.77
2018-01-30T17:18:47.915Z,12.90
2018-01-30T17:21:16.887Z,12.03
2018-01-30T17:23:45.854Z,15.07
2018-01-30T17:26:14.083Z,12.70
2018-01-30T17:28:42.279Z,11.80
2018-01-30T17:31:10.524Z,12.03
2018-01-30T17:33:38.832Z,19.83
2018-01-30T17:36:07.095Z,17.90
2018-01-30T17:38:35.325Z,18.23
2018-01-30T17:41:04.297Z,17.07
2018-01-30T17:43:32.511Z,14.90
2018-01-30T17:46:01.508Z,15.57
2018-01-30T17:48:30.472Z,13.20
2018-01-30T17:50:58.701Z,12.63
2018-01-30T17:53:26.926Z,12.90
2018-01-30T17:55:55.121Z,13.10
2018-01-30T17:58:24.078Z,12.83
2018-01-30T18:00:52.423Z,12.83
2018-01-30T18:03:20.632Z,13.57
2018-01-30T18:05:48.863Z,14.60
2018-01-30T18:08:17.098Z,15.20
2018-01-30T18:10:45.307Z,13.40
2018-01-30T18:13:14.295Z,13.40
2018-01-30T18:15:43.270Z,13.03
2018-01-30T18:18:11.526Z,11.87
2018-01-30T18:20:39.849Z,11.43
2018-01-30T18:23:09.939Z,11.80
2018-01-30T18:25:38.273Z,11.93
2018-01-30T18:28:06.498Z,12.33
2018-01-30T18:30:34.736Z,13.67
2018-01-30T18:33:02.966Z,10.30
2018-01-30T18:35:32.107Z,14.17
2018-01-30T18:38:06.780Z,13.40
2018-01-30T18:40:35.212Z,11.93
2018-01-30T18:43:03.400Z,14.97
2018-01-30T18:45:31.589Z,15.87
2018-01-30T18:47:59.819Z,14.50
2018-01-30T18:50:28.032Z,11.17
2018-01-30T18:52:56.281Z,12.60
2018-01-30T18:55:24.497Z,13.40
2018-01-30T18:57:52.709Z,15.17
2018-01-30T19:00:21.690Z,15.57
2018-01-30T19:02:50.716Z,15.57
2018-01-30T19:05:18.975Z,15.33
2018-01-30T19:07:47.954Z,12.87
2018-01-30T19:10:16.242Z,12.40
2018-01-30T19:12:45.226Z,13.27
2018-01-30T19:15:13.436Z,13.57
2018-01-30T19:17:41.712Z,12.93
2018-01-30T19:20:09.947Z,12.57
2018-01-30T19:22:38.323Z,12.27
2018-01-30T19:25:06.530Z,12.07
2018-01-30T19:27:35.190Z,11.50
2018-01-30T19:30:03.389Z,11.73
2018-01-30T19:32:32.518Z,12.67
2018-01-30T19:35:00.810Z,12.80
2018-01-30T19:37:29.008Z,13.10
2018-01-30T19:39:57.450Z,11.77
2018-01-30T19:42:25.636Z,13.33
2018-01-30T19:44:53.969Z,13.60
2018-01-30T19:47:22.963Z,13.20
2018-01-30T19:49:51.915Z,12.57
2018-01-30T19:52:20.136Z,13.63
2018-01-30T19:54:49.487Z,13.20
2018-01-30T19:57:17.686Z,13.70
2018-01-30T19:59:47.439Z,13.53
2018-01-30T20:02:15.712Z,14.20
2018-01-30T20:04:44.673Z,19.53
2018-01-30T20:07:13.317Z,16.50
2018-01-30T20:09:41.555Z,14.17
2018-01-30T20:12:10.588Z,15.67
2018-01-30T20:14:38.790Z,14.93
2018-01-30T20:17:07.007Z,15.23
2018-01-30T20:19:35.973Z,16.80
2018-01-30T20:22:04.147Z,16.53
2018-01-30T20:24:32.377Z,20.23
2018-01-30T20:27:00.620Z,17.87
2018-01-30T20:29:29.115Z,18.07
2018-01-30T20:31:58.220Z,20.20
2018-01-30T20:34:26.441Z,19.33
2018-01-30T20:36:54.665Z,22.03
2018-01-30T20:39:23.639Z,21.77
2018-01-30T20:41:52.695Z,21.50
2018-01-30T20:44:20.887Z,21.37
2018-01-30T20:46:49.087Z,21.73
2018-01-30T20:49:18.078Z,22.13
2018-01-30T20:51:46.400Z,22.13
2018-01-30T20:54:14.597Z,23.30
2018-01-30T20:56:42.860Z,21.87
2018-01-30T20:59:11.062Z,24.93
2018-01-30T21:01:39.281Z,26.00
2018-01-30T21:04:07.552Z,25.43
2018-01-30T21:06:36.527Z,24.20
2018-01-30T21:09:04.746Z,24.37
2018-01-30T21:11:32.946Z,24.20
2018-01-30T21:14:01.163Z,23.53
2018-01-30T21:16:30.303Z,25.13
2018-01-30T21:18:58.520Z,24.67
2018-01-30T21:21:27.025Z,24.63
2018-01-30T21:23:56.970Z,23.87
2018-01-30T21:26:25.294Z,23.23
2018-01-30T21:28:53.532Z,21.63
2018-01-30T21:31:22.820Z,25.43
2018-01-30T21:33:51.044Z,42.03
2018-01-30T21:36:19.292Z,38.77
2018-01-30T21:38:47.672Z,42.57
2018-01-30T21:41:15.873Z,44.63
2018-01-30T21:43:44.110Z,43.53
2018-01-30T21:46:12.337Z,39.57
2018-01-30T21:48:40.547Z,35.37
2018-01-30T21:51:08.852Z,40.13
2018-01-30T21:53:37.041Z,38.57
2018-01-30T21:56:05.229Z,37.83
2018-01-30T21:58:33.455Z,43.07
2018-01-30T22:01:01.682Z,45.60
2018-01-30T22:03:29.887Z,38.80
2018-01-30T22:05:58.112Z,38.40
2018-01-30T22:08:26.316Z,33.90
2018-01-30T22:10:54.516Z,33.47
2018-01-30T22:13:23.490Z,35.87
2018-01-30T22:15:51.687Z,28.97
2018-01-30T22:18:20.656Z,29.30
2018-01-30T22:20:48.895Z,38.70
2018-01-30T22:23:17.096Z,32.87
2018-01-30T22:25:45.298Z,25.50
2018-01-30T22:28:13.630Z,25.97
2018-01-30T22:30:41.815Z,26.50
2018-01-30T22:33:10.044Z,28.77
2018-01-30T22:35:38.350Z,26.37
2018-01-30T22:38:06.551Z,23.27
2018-01-30T22:40:34.767Z,23.90
2018-01-30T22:43:03.720Z,24.00
2018-01-30T22:45:31.922Z,27.63
